Time;durP1;ratioP1;P1;durP2;ratioP2;P2;SDS_P1;SDS_P2;PMS_P1;PMS_P2;Temp;Humidity;BMP_temperature;BMP_pressure;BME280_temperature;BME280_humidity;BME280_pressure;Samples;Min_cycle;Max_cycle;Signal;HPM_P1;HPM_P2
2023/03/21 00:01:05;;;;;;;12.77;5.47;;;11.60;99.90;;;;;;4176998;28;20478;-65
2023/03/21 00:03:06;;;;;;;13.07;5.80;;;11.60;99.90;;;;;;4175855;28;21298;-65
2023/03/21 00:05:07;;;;;;;15.77;5.63;;;11.60;99.90;;;;;;4173874;28;20024;-65
2023/03/21 00:07:07;;;;;;;10.75;4.30;;;11.60;99.90;;;;;;4174901;28;20056;-65
2023/03/21 00:09:08;;;;;;;14.82;5.68;;;11.60;99.90;;;;;;4176057;28;20032;-65
2023/03/21 00:11:10;;;;;;;12.88;4.72;;;11.60;99.90;;;;;;4174184;28;20021;-65
2023/03/21 00:13:13;;;;;;;18.20;5.40;;;11.60;99.90;;;;;;4174106;28;20033;-66
2023/03/21 00:15:17;;;;;;;15.57;5.93;;;11.60;99.90;;;;;;4174470;28;20055;-65
2023/03/21 00:17:21;;;;;;;10.55;4.82;;;11.60;99.90;;;;;;4176345;28;20048;-65
2023/03/21 00:19:25;;;;;;;10.52;5.00;;;11.60;99.90;;;;;;4175413;28;20100;-65
2023/03/21 00:21:31;;;;;;;12.98;5.05;;;11.60;99.90;;;;;;4176079;28;20496;-65
2023/03/21 00:23:32;;;;;;;11.45;5.28;;;11.60;99.90;;;;;;4175613;28;20056;-65
2023/03/21 00:25:32;;;;;;;12.40;4.70;;;11.60;99.90;;;;;;4175549;28;20083;-65
2023/03/21 00:27:34;;;;;;;19.15;5.40;;;11.60;99.90;;;;;;4179875;28;20196;-64
2023/03/21 00:29:34;;;;;;;17.00;5.10;;;11.50;99.90;;;;;;4200135;28;20039;-65
2023/03/21 00:31:35;;;;;;;11.63;4.57;;;11.50;99.90;;;;;;4175302;28;20423;-65
2023/03/21 00:33:37;;;;;;;11.95;4.40;;;11.60;99.90;;;;;;4176054;28;20029;-65
2023/03/21 00:35:42;;;;;;;10.98;4.45;;;11.60;99.90;;;;;;4174850;28;20048;-65
2023/03/21 00:37:43;;;;;;;10.38;4.32;;;11.50;99.90;;;;;;4175099;28;20394;-65
2023/03/21 00:39:47;;;;;;;9.45;4.63;;;11.60;99.90;;;;;;4174583;28;20115;-65
2023/03/21 00:41:48;;;;;;;14.18;5.47;;;11.60;99.90;;;;;;4172811;28;20029;-65
2023/03/21 00:43:50;;;;;;;12.38;5.05;;;11.60;99.90;;;;;;4175815;28;20111;-65
2023/03/21 00:45:51;;;;;;;11.85;5.18;;;11.60;99.90;;;;;;4174355;28;20025;-65
2023/03/21 00:47:52;;;;;;;10.02;4.40;;;11.60;99.90;;;;;;4176361;28;20130;-65
2023/03/21 00:49:53;;;;;;;15.65;5.25;;;11.50;99.90;;;;;;4175927;28;20124;-65
2023/03/21 00:51:54;;;;;;;18.15;5.60;;;11.50;99.90;;;;;;4176499;28;20029;-65
2023/03/21 00:53:56;;;;;;;15.43;5.15;;;11.50;99.90;;;;;;4174918;28;20520;-65
2023/03/21 00:55:57;;;;;;;15.85;5.57;;;11.50;99.90;;;;;;4176330;28;20029;-65
2023/03/21 00:57:58;;;;;;;10.98;5.07;;;11.50;99.90;;;;;;4177090;28;20060;-65
2023/03/21 00:59:58;;;;;;;20.13;6.10;;;11.50;99.90;;;;;;4173357;28;20082;-65
2023/03/21 01:01:59;;;;;;;17.98;6.28;;;11.40;99.90;;;;;;4172476;28;20124;-64
2023/03/21 01:04:06;;;;;;;13.63;5.25;;;11.40;99.90;;;;;;4171437;28;20577;-65
2023/03/21 01:06:12;;;;;;;17.17;5.78;;;11.50;99.90;;;;;;4179067;28;20509;-65
2023/03/21 01:08:15;;;;;;;9.80;4.85;;;11.40;99.90;;;;;;4173043;28;20063;-65
2023/03/21 01:10:16;;;;;;;16.65;5.38;;;11.40;99.90;;;;;;4177123;28;20040;-65
2023/03/21 01:12:17;;;;;;;10.23;5.00;;;11.40;99.90;;;;;;4176913;28;20505;-65
2023/03/21 01:14:19;;;;;;;12.60;5.10;;;11.40;99.90;;;;;;4174254;28;20502;-65
2023/03/21 01:16:20;;;;;;;12.23;5.22;;;11.40;99.90;;;;;;4159672;28;20456;-65
2023/03/21 01:18:26;;;;;;;8.77;4.90;;;11.50;99.90;;;;;;4176367;28;20170;-65
2023/03/21 01:20:28;;;;;;;12.38;5.20;;;11.40;99.90;;;;;;4174562;28;20628;-65
2023/03/21 01:22:28;;;;;;;11.82;5.20;;;11.50;99.90;;;;;;4176337;28;20037;-64
2023/03/21 01:24:29;;;;;;;13.63;5.22;;;11.50;99.90;;;;;;4172183;28;20044;-65
2023/03/21 01:26:30;;;;;;;11.63;5.20;;;11.50;99.90;;;;;;4200074;28;20091;-65
2023/03/21 01:28:32;;;;;;;14.20;5.65;;;11.50;99.90;;;;;;4149554;28;20041;-64
2023/03/21 01:30:33;;;;;;;12.48;5.18;;;11.50;99.90;;;;;;4173698;28;20072;-65
2023/03/21 01:32:34;;;;;;;10.93;5.30;;;11.40;99.90;;;;;;4177035;28;20033;-65
2023/03/21 01:34:35;;;;;;;16.90;5.32;;;11.50;99.90;;;;;;4173607;28;20025;-65
2023/03/21 01:36:35;;;;;;;15.10;5.45;;;11.50;99.90;;;;;;4180563;28;20490;-65
2023/03/21 01:38:36;;;;;;;13.13;5.57;;;11.50;99.90;;;;;;4179027;28;20401;-64
2023/03/21 01:40:37;;;;;;;11.80;5.03;;;11.40;99.90;;;;;;4175877;28;20428;-65
2023/03/21 01:42:38;;;;;;;12.57;5.15;;;11.40;99.90;;;;;;4175436;28;20033;-65
2023/03/21 01:45:30;;;;;;;13.95;5.68;;;11.40;99.90;;;;;;4174766;28;20025;-65
2023/03/21 01:47:30;;;;;;;11.45;5.05;;;11.40;99.90;;;;;;4140247;28;20029;-64
2023/03/21 01:49:37;;;;;;;11.43;5.55;;;11.40;99.90;;;;;;4208153;28;20445;-67
2023/03/21 01:51:46;;;;;;;10.57;5.22;;;11.50;99.90;;;;;;4170171;28;20022;-65
2023/03/21 01:53:47;;;;;;;11.93;5.15;;;11.50;99.90;;;;;;4176737;28;20497;-65
2023/03/21 01:55:48;;;;;;;14.52;5.43;;;11.50;99.90;;;;;;4174950;28;20032;-65
2023/03/21 01:57:52;;;;;;;17.05;6.00;;;11.40;99.90;;;;;;4176688;28;20082;-65
2023/03/21 01:59:53;;;;;;;15.05;5.60;;;11.40;99.90;;;;;;4177576;28;20542;-65
2023/03/21 02:01:57;;;;;;;12.45;5.47;;;11.40;99.90;;;;;;4176475;28;20025;-64
2023/03/21 02:04:02;;;;;;;9.93;5.35;;;11.40;99.90;;;;;;4177017;22;20093;-70
2023/03/21 02:06:11;;;;;;;8.25;4.63;;;11.40;99.90;;;;;;4125613;28;20046;-69
2023/03/21 02:08:12;;;;;;;13.88;5.75;;;11.40;99.90;;;;;;4128025;28;20037;-69
2023/03/21 02:10:15;;;;;;;17.30;6.90;;;11.50;99.90;;;;;;4125739;28;20108;-68
2023/03/21 02:12:17;;;;;;;13.02;6.43;;;11.40;99.90;;;;;;4127157;28;20434;-69
2023/03/21 02:14:18;;;;;;;14.27;5.75;;;11.40;99.90;;;;;;4142661;28;20083;-69
2023/03/21 02:16:45;;;;;;;9.82;5.28;;;11.40;99.90;;;;;;4128343;28;20512;-70
2023/03/21 02:19:10;;;;;;;14.35;5.20;;;11.50;99.90;;;;;;4124380;28;20026;-69
2023/03/21 02:21:44;;;;;;;18.08;5.13;;;11.50;99.90;;;;;;4127392;28;20121;-69
2023/03/21 02:24:10;;;;;;;13.35;5.78;;;11.50;99.90;;;;;;4126955;28;20125;-69
2023/03/21 02:26:52;;;;;;;16.88;5.97;;;11.50;99.90;;;;;;4126026;28;20493;-70
2023/03/21 02:29:03;;;;;;;11.55;4.90;;;11.50;99.90;;;;;;4126661;28;20034;-69
2023/03/21 02:31:23;;;;;;;10.18;5.13;;;11.50;99.90;;;;;;4125733;28;20052;-69
2023/03/21 02:33:41;;;;;;;9.75;4.93;;;11.50;99.90;;;;;;4125295;28;20127;-69
2023/03/21 02:35:53;;;;;;;10.40;5.07;;;11.50;99.90;;;;;;4126282;28;20462;-70
2023/03/21 02:37:58;;;;;;;9.98;5.07;;;11.50;99.90;;;;;;4126229;28;20117;-69
2023/03/21 02:40:48;;;;;;;9.63;5.05;;;11.60;99.90;;;;;;4128064;28;20509;-70
2023/03/21 02:43:16;;;;;;;10.77;5.03;;;11.60;99.90;;;;;;4072581;28;20032;-69
2023/03/21 02:45:20;;;;;;;9.35;4.82;;;11.60;99.90;;;;;;4109210;28;20478;-69
2023/03/21 02:47:39;;;;;;;11.15;5.05;;;11.60;99.90;;;;;;4127218;28;20062;-70
2023/03/21 02:49:49;;;;;;;11.00;4.85;;;11.60;99.90;;;;;;4127521;28;20045;-69
2023/03/21 02:51:50;;;;;;;11.48;5.45;;;11.60;99.90;;;;;;4126457;28;20034;-69
2023/03/21 02:54:01;;;;;;;16.67;5.90;;;11.60;99.90;;;;;;4128033;28;20030;-69
2023/03/21 02:56:03;;;;;;;9.43;5.75;;;11.60;99.90;;;;;;4122006;28;20505;-69
2023/03/21 02:58:06;;;;;;;13.83;5.83;;;11.60;99.90;;;;;;4128673;28;20038;-68
2023/03/21 03:00:11;;;;;;;12.77;5.28;;;11.60;99.90;;;;;;4126248;28;20033;-71
2023/03/21 03:02:13;;;;;;;8.40;5.03;;;11.50;99.90;;;;;;4125636;28;20042;-70
2023/03/21 03:04:18;;;;;;;9.10;5.18;;;11.50;99.90;;;;;;4125474;28;20039;-69
2023/03/21 03:06:24;;;;;;;12.25;6.15;;;11.60;99.90;;;;;;4126443;28;20077;-69
2023/03/21 03:08:48;;;;;;;10.00;5.43;;;11.50;99.90;;;;;;4127627;28;20042;-69
2023/03/21 03:11:16;;;;;;;9.82;5.53;;;11.50;99.90;;;;;;4121251;28;20093;-69
2023/03/21 03:13:28;;;;;;;11.75;5.88;;;11.50;99.90;;;;;;4124544;28;20033;-69
2023/03/21 03:15:44;;;;;;;10.65;4.68;;;11.40;99.90;;;;;;4122178;28;20118;-69
2023/03/21 03:17:50;;;;;;;10.85;5.20;;;11.40;99.90;;;;;;4127530;28;20038;-70
2023/03/21 03:20:04;;;;;;;17.25;6.05;;;11.50;99.90;;;;;;4128033;28;20022;-69
2023/03/21 03:22:12;;;;;;;10.27;5.50;;;11.50;99.90;;;;;;4127606;28;22352;-70
2023/03/21 03:24:19;;;;;;;11.27;5.95;;;11.40;99.90;;;;;;4134115;28;20595;-69
2023/03/21 03:26:30;;;;;;;8.48;4.93;;;11.40;99.90;;;;;;4120231;28;20065;-69
2023/03/21 03:28:36;;;;;;;16.73;6.53;;;11.50;99.90;;;;;;4127816;28;20089;-70
2023/03/21 03:30:38;;;;;;;10.68;5.63;;;11.40;99.90;;;;;;4117892;28;20051;-69
2023/03/21 03:32:47;;;;;;;15.33;6.70;;;11.40;99.90;;;;;;4130543;28;20077;-69
2023/03/21 03:34:55;;;;;;;12.80;5.38;;;11.40;99.90;;;;;;4126491;28;20039;-68
2023/03/21 03:36:58;;;;;;;13.38;5.95;;;11.30;99.90;;;;;;4128427;28;20038;-69
2023/03/21 03:39:03;;;;;;;12.50;6.45;;;11.30;99.90;;;;;;4135958;28;20040;-70
2023/03/21 03:41:14;;;;;;;13.82;7.68;;;11.30;99.90;;;;;;4125210;28;20038;-69
2023/03/21 03:43:20;;;;;;;17.67;9.52;;;11.30;99.90;;;;;;4126731;28;20112;-70
2023/03/21 03:45:29;;;;;;;40.55;28.20;;;11.30;99.90;;;;;;4127662;28;20116;-69
2023/03/21 03:47:53;;;;;;;32.67;19.38;;;11.30;99.90;;;;;;4132728;28;20490;-69
2023/03/21 03:50:32;;;;;;;22.02;14.88;;;11.30;99.90;;;;;;4101252;28;20037;-69
2023/03/21 03:52:48;;;;;;;23.08;14.35;;;11.30;99.90;;;;;;4125275;28;20397;-68
2023/03/21 03:54:51;;;;;;;17.38;9.13;;;11.40;99.90;;;;;;4128744;28;20035;-69
2023/03/21 03:56:51;;;;;;;;;;;11.30;99.90;;;;;;4130424;28;20536;-70
2023/03/21 03:58:52;;;;;;;17.52;7.38;;;11.30;99.90;;;;;;4125517;28;19914;-70
2023/03/21 04:00:54;;;;;;;14.43;7.28;;;11.40;99.90;;;;;;4130003;28;20041;-70
2023/03/21 04:02:57;;;;;;;13.63;6.57;;;11.30;99.90;;;;;;4130159;28;20034;-70
2023/03/21 04:04:58;;;;;;;15.18;7.47;;;11.30;99.90;;;;;;4129706;28;20038;-70
2023/03/21 04:06:59;;;;;;;18.45;8.00;;;11.30;99.90;;;;;;4130122;28;20093;-70
2023/03/21 04:09:00;;;;;;;15.15;8.30;;;11.20;99.90;;;;;;4136999;28;20117;-70
2023/03/21 04:11:01;;;;;;;13.75;7.70;;;11.20;99.90;;;;;;4129296;28;20517;-70
2023/03/21 04:13:02;;;;;;;10.77;5.97;;;11.20;99.90;;;;;;4121679;28;20038;-70
2023/03/21 04:15:03;;;;;;;14.00;7.07;;;11.20;99.90;;;;;;4132949;28;20105;-71
2023/03/21 04:17:03;;;;;;;12.55;6.82;;;11.20;99.90;;;;;;4130998;28;20038;-68
2023/03/21 04:19:04;;;;;;;15.98;7.32;;;11.20;99.90;;;;;;4132311;28;20035;-70
2023/03/21 04:21:11;;;;;;;15.23;6.50;;;11.20;99.90;;;;;;4129254;28;20030;-71
2023/03/21 04:23:12;;;;;;;11.75;6.38;;;11.20;99.90;;;;;;4130623;28;20026;-72
2023/03/21 04:25:13;;;;;;;15.98;6.97;;;11.20;99.90;;;;;;4131303;28;20109;-72
2023/03/21 04:27:13;;;;;;;13.48;6.55;;;11.10;99.90;;;;;;4134189;28;20053;-73
2023/03/21 04:29:14;;;;;;;15.60;6.75;;;11.10;99.90;;;;;;4131993;28;20038;-73
2023/03/21 04:31:16;;;;;;;14.10;6.43;;;11.10;99.90;;;;;;4125293;28;20027;-72
2023/03/21 04:33:16;;;;;;;12.50;6.28;;;11.10;99.90;;;;;;4130312;28;20121;-72
2023/03/21 04:35:17;;;;;;;15.18;6.35;;;11.00;99.90;;;;;;4124038;28;20039;-72
2023/03/21 04:37:18;;;;;;;12.48;5.97;;;11.00;99.90;;;;;;4131818;28;20562;-71
2023/03/21 04:39:20;;;;;;;13.00;6.28;;;11.00;99.90;;;;;;4137205;28;20128;-73
2023/03/21 04:41:21;;;;;;;16.00;6.73;;;11.00;99.90;;;;;;4125341;28;20038;-74
2023/03/21 04:43:22;;;;;;;12.23;5.70;;;10.90;99.90;;;;;;4128024;28;20265;-75
2023/03/21 04:45:23;;;;;;;13.20;6.18;;;11.00;99.90;;;;;;4131211;28;20038;-75
2023/03/21 04:47:24;;;;;;;12.60;5.93;;;11.00;99.90;;;;;;4127329;28;20041;-75
2023/03/21 04:49:25;;;;;;;13.95;6.35;;;11.00;99.90;;;;;;4138030;28;20447;-75
2023/03/21 04:51:25;;;;;;;14.63;6.82;;;11.00;99.90;;;;;;4117464;28;20035;-75
2023/03/21 04:53:26;;;;;;;12.18;5.57;;;10.90;99.90;;;;;;4121976;28;20470;-76
2023/03/21 04:55:28;;;;;;;14.38;5.88;;;10.90;99.90;;;;;;4133508;28;20037;-75
2023/03/21 04:57:28;;;;;;;11.43;5.07;;;10.90;99.90;;;;;;4129249;28;20045;-75
2023/03/21 04:59:29;;;;;;;12.90;5.55;;;10.90;99.90;;;;;;4132072;28;20034;-75
2023/03/21 05:01:30;;;;;;;11.95;5.75;;;10.90;99.90;;;;;;4127718;28;20081;-75
2023/03/21 05:03:33;;;;;;;10.02;5.20;;;10.90;99.90;;;;;;4127487;28;20026;-75
2023/03/21 05:05:36;;;;;;;15.57;6.82;;;10.90;99.90;;;;;;4134763;28;20097;-72
2023/03/21 05:07:38;;;;;;;11.25;5.63;;;10.90;99.90;;;;;;4131055;28;20038;-75
2023/03/21 05:09:39;;;;;;;13.85;6.50;;;10.90;99.90;;;;;;4131042;28;22704;-75
2023/03/21 05:11:40;;;;;;;9.60;5.28;;;10.90;99.90;;;;;;4125703;28;20084;-75
2023/03/21 05:13:40;;;;;;;15.00;5.97;;;10.90;99.90;;;;;;4124287;28;20374;-75
2023/03/21 05:15:41;;;;;;;13.40;5.68;;;10.90;99.90;;;;;;4127020;28;20033;-75
2023/03/21 05:17:43;;;;;;;12.57;5.30;;;10.90;99.90;;;;;;4131890;28;20038;-75
2023/03/21 05:19:44;;;;;;;10.82;5.43;;;10.90;99.90;;;;;;4130545;28;20078;-75
2023/03/21 05:21:44;;;;;;;9.85;5.22;;;10.90;99.90;;;;;;4129069;28;20030;-75
2023/03/21 05:23:52;;;;;;;11.18;5.20;;;10.90;99.90;;;;;;4125129;28;20109;-76
2023/03/21 05:25:53;;;;;;;12.70;6.05;;;10.90;99.90;;;;;;4125826;28;20030;-75
2023/03/21 05:27:54;;;;;;;12.18;5.78;;;10.90;99.90;;;;;;4129818;28;20064;-75
2023/03/21 05:29:54;;;;;;;17.20;6.25;;;10.90;99.90;;;;;;4130199;28;20170;-75
2023/03/21 05:31:56;;;;;;;14.48;6.60;;;10.80;99.90;;;;;;4126900;28;20059;-75
2023/03/21 05:33:56;;;;;;;14.93;6.13;;;10.80;99.90;;;;;;4129747;28;20034;-75
2023/03/21 05:35:57;;;;;;;11.93;6.10;;;10.80;99.90;;;;;;4144637;28;20347;-75
2023/03/21 05:37:58;;;;;;;13.98;5.50;;;10.80;99.90;;;;;;4128868;28;20038;-75
2023/03/21 05:39:58;;;;;;;11.82;6.10;;;10.80;99.90;;;;;;4124977;28;20073;-75
2023/03/21 05:41:59;;;;;;;18.13;6.45;;;10.70;99.90;;;;;;4121478;28;20038;-75
2023/03/21 05:43:59;;;;;;;15.15;6.60;;;10.70;99.90;;;;;;4125372;28;20034;-76
2023/03/21 05:46:00;;;;;;;12.20;6.03;;;10.70;99.90;;;;;;4127894;28;20033;-76
2023/03/21 05:48:00;;;;;;;13.75;6.20;;;10.70;99.90;;;;;;4125846;28;20157;-75
2023/03/21 05:50:01;;;;;;;12.65;5.75;;;10.70;99.90;;;;;;4129029;28;20041;-75
2023/03/21 05:52:02;;;;;;;14.43;6.53;;;10.70;99.90;;;;;;4128531;28;20482;-76
2023/03/21 05:54:02;;;;;;;8.82;5.40;;;10.70;99.90;;;;;;4126360;28;20117;-75
2023/03/21 05:56:03;;;;;;;10.98;5.57;;;10.80;99.90;;;;;;4126936;28;20116;-75
2023/03/21 05:58:04;;;;;;;10.70;5.65;;;10.70;99.90;;;;;;4126746;28;20084;-75
2023/03/21 06:00:07;;;;;;;9.52;4.82;;;10.80;99.90;;;;;;4128848;28;20054;-71
2023/03/21 06:02:07;;;;;;;12.65;5.90;;;10.80;99.90;;;;;;4127780;28;20035;-74
2023/03/21 06:04:09;;;;;;;13.38;5.25;;;10.80;99.90;;;;;;4124920;28;20042;-75
2023/03/21 06:06:09;;;;;;;10.77;5.07;;;10.80;99.90;;;;;;4124722;28;20124;-75
2023/03/21 06:08:10;;;;;;;8.80;4.95;;;10.80;99.90;;;;;;4125916;28;20042;-75
2023/03/21 06:10:11;;;;;;;11.40;5.28;;;10.80;99.90;;;;;;4125724;28;20173;-77
2023/03/21 06:12:13;;;;;;;12.27;6.15;;;10.80;99.90;;;;;;4127291;28;20041;-76
2023/03/21 06:14:14;;;;;;;12.48;5.85;;;10.80;99.90;;;;;;4128497;28;20030;-76
2023/03/21 06:16:14;;;;;;;12.02;5.70;;;10.80;99.90;;;;;;4128770;28;20029;-75
2023/03/21 06:18:15;;;;;;;9.82;5.03;;;10.80;99.90;;;;;;4127920;28;20088;-76
2023/03/21 06:20:16;;;;;;;12.48;5.25;;;10.80;99.90;;;;;;4127239;28;20031;-75
2023/03/21 06:22:17;;;;;;;10.93;6.07;;;10.90;99.90;;;;;;4125468;28;20026;-75
2023/03/21 06:24:17;;;;;;;12.32;5.63;;;10.90;99.90;;;;;;4127220;28;20033;-75
2023/03/21 06:26:21;;;;;;;13.43;6.30;;;10.90;99.90;;;;;;4123330;28;20042;-75
2023/03/21 06:28:22;;;;;;;10.07;5.45;;;10.90;99.90;;;;;;4130558;28;20034;-75
2023/03/21 06:30:22;;;;;;;10.43;5.35;;;10.90;99.90;;;;;;4126543;28;20501;-77
2023/03/21 06:32:23;;;;;;;12.23;6.22;;;10.90;99.90;;;;;;4127563;28;20042;-75
2023/03/21 06:34:25;;;;;;;17.58;6.18;;;10.80;99.90;;;;;;4124991;28;20090;-76
2023/03/21 06:36:26;;;;;;;13.38;5.82;;;10.80;99.90;;;;;;4125131;28;20101;-76
2023/03/21 06:38:26;;;;;;;13.18;6.45;;;10.80;99.90;;;;;;4128130;28;20034;-75
2023/03/21 06:40:27;;;;;;;13.15;5.53;;;10.80;99.90;;;;;;4122835;28;20050;-76
2023/03/21 06:42:28;;;;;;;18.13;6.18;;;10.80;99.90;;;;;;4125538;28;20030;-76
2023/03/21 06:44:29;;;;;;;12.50;5.35;;;10.90;99.90;;;;;;4125536;28;20042;-75
2023/03/21 06:46:30;;;;;;;11.55;5.25;;;10.90;99.90;;;;;;4128409;28;20037;-76
2023/03/21 06:48:31;;;;;;;14.98;6.53;;;10.90;99.90;;;;;;4128477;28;20070;-76
2023/03/21 06:50:32;;;;;;;19.05;6.43;;;10.80;99.90;;;;;;4121640;28;20053;-76
2023/03/21 06:52:32;;;;;;;14.00;5.22;;;10.80;99.90;;;;;;4133424;28;20104;-76
2023/03/21 06:54:33;;;;;;;16.58;5.55;;;10.80;99.90;;;;;;4141896;28;20046;-76
2023/03/21 06:56:33;;;;;;;10.45;5.10;;;10.80;99.90;;;;;;4127598;28;20030;-76
2023/03/21 06:58:34;;;;;;;19.42;6.03;;;10.80;99.90;;;;;;4127187;28;20030;-75
2023/03/21 07:00:35;;;;;;;15.45;5.88;;;10.80;99.90;;;;;;4124916;28;20053;-73
2023/03/21 07:02:35;;;;;;;11.63;5.05;;;10.80;99.90;;;;;;4127078;28;20035;-70
2023/03/21 07:04:36;;;;;;;11.07;5.10;;;10.80;99.90;;;;;;4128290;28;20125;-75
2023/03/21 07:06:37;;;;;;;10.88;4.93;;;10.80;99.90;;;;;;4126857;28;20030;-74
2023/03/21 07:08:38;;;;;;;10.63;5.03;;;10.80;99.90;;;;;;4137454;28;20482;-74
2023/03/21 07:10:44;;;;;;;10.02;5.10;;;10.90;99.90;;;;;;4128277;28;20042;-74
2023/03/21 07:12:45;;;;;;;12.77;5.00;;;10.90;99.90;;;;;;4128429;28;20030;-75
2023/03/21 07:14:45;;;;;;;11.70;4.93;;;10.90;99.90;;;;;;4131560;28;20041;-75
2023/03/21 07:16:46;;;;;;;15.90;5.38;;;10.90;99.90;;;;;;4131065;28;20034;-75
2023/03/21 07:18:47;;;;;;;12.00;5.07;;;10.90;99.90;;;;;;4131085;28;20030;-75
2023/03/21 07:20:49;;;;;;;13.48;5.75;;;10.90;99.90;;;;;;4130998;28;20438;-75
2023/03/21 07:22:50;;;;;;;13.32;5.30;;;10.90;99.90;;;;;;4130885;28;20037;-72
2023/03/21 07:24:51;;;;;;;10.27;5.50;;;10.90;99.90;;;;;;4131924;28;20474;-73
2023/03/21 07:26:52;;;;;;;14.30;5.70;;;10.90;99.90;;;;;;4131534;28;20374;-74
2023/03/21 07:28:52;;;;;;;12.18;5.90;;;10.90;99.90;;;;;;4132233;28;20034;-74
2023/03/21 07:30:56;;;;;;;12.23;5.10;;;10.90;99.90;;;;;;4129884;28;20489;-74
2023/03/21 07:32:56;;;;;;;12.70;5.93;;;10.90;99.90;;;;;;4130474;28;20482;-74
2023/03/21 07:34:57;;;;;;;11.32;5.70;;;11.00;99.90;;;;;;4130766;28;20089;-74
2023/03/21 07:36:57;;;;;;;13.90;6.25;;;11.00;99.90;;;;;;4130731;28;20482;-75
2023/03/21 07:38:58;;;;;;;10.77;5.50;;;11.00;99.90;;;;;;4131233;28;20041;-75
2023/03/21 07:40:59;;;;;;;10.77;5.82;;;11.00;99.90;;;;;;4131164;28;20121;-74
2023/03/21 07:43:00;;;;;;;12.48;5.75;;;11.00;99.90;;;;;;4130730;28;20034;-75
2023/03/21 07:45:00;;;;;;;12.38;6.15;;;11.10;99.90;;;;;;4130962;28;20511;-75
2023/03/21 07:47:01;;;;;;;13.95;6.22;;;11.10;99.90;;;;;;4130623;28;20034;-74
2023/03/21 07:49:02;;;;;;;13.45;6.65;;;11.10;99.90;;;;;;4130368;28;20034;-74
2023/03/21 07:51:02;;;;;;;20.70;9.05;;;11.20;99.90;;;;;;4132135;28;20034;-74
2023/03/21 07:53:03;;;;;;;18.95;8.35;;;11.10;99.90;;;;;;4131872;28;20058;-75
2023/03/21 07:55:04;;;;;;;17.33;6.78;;;11.10;99.90;;;;;;4132672;28;20037;-75
2023/03/21 07:57:06;;;;;;;13.93;6.03;;;11.10;99.90;;;;;;4131220;28;20381;-75
2023/03/21 07:59:07;;;;;;;13.60;5.60;;;11.20;99.90;;;;;;4129696;28;20038;-69
2023/03/21 08:01:07;;;;;;;10.80;5.03;;;11.20;99.90;;;;;;4128582;28;20030;-74
2023/03/21 08:03:08;;;;;;;11.25;4.97;;;11.20;99.90;;;;;;4129646;28;20037;-75
2023/03/21 08:05:10;;;;;;;14.73;4.97;;;11.20;99.90;;;;;;4130029;28;20046;-75
2023/03/21 08:07:11;;;;;;;9.85;4.80;;;11.20;99.90;;;;;;4131053;28;20490;-75
2023/03/21 08:09:11;;;;;;;9.35;4.90;;;11.30;99.90;;;;;;4130402;28;20038;-76
2023/03/21 08:11:13;;;;;;;10.35;5.20;;;11.30;99.90;;;;;;4130287;28;20038;-76
2023/03/21 08:13:13;;;;;;;12.88;5.60;;;11.30;99.90;;;;;;4137309;28;20055;-76
2023/03/21 08:15:14;;;;;;;12.00;4.65;;;11.30;99.90;;;;;;4130689;28;20038;-75
2023/03/21 08:17:15;;;;;;;11.10;4.85;;;11.40;99.90;;;;;;4130450;28;20536;-76
2023/03/21 08:19:17;;;;;;;16.67;5.88;;;11.40;99.90;;;;;;4130495;28;20034;-76
2023/03/21 08:21:18;;;;;;;10.15;4.78;;;11.30;99.90;;;;;;4131089;28;20041;-76
2023/03/21 08:23:19;;;;;;;9.85;5.05;;;11.30;99.90;;;;;;4130374;28;20501;-76
2023/03/21 08:25:21;;;;;;;8.75;4.90;;;11.30;99.90;;;;;;4132106;28;20038;-68
2023/03/21 08:27:22;;;;;;;8.57;4.10;;;11.30;99.90;;;;;;4130610;28;20034;-75
2023/03/21 08:29:23;;;;;;;12.45;5.07;;;11.40;99.90;;;;;;4129701;28;20431;-75
2023/03/21 08:31:24;;;;;;;12.43;4.90;;;11.30;99.90;;;;;;4129782;28;20121;-76
2023/03/21 08:33:25;;;;;;;11.88;4.35;;;11.40;99.90;;;;;;4130486;28;20386;-75
2023/03/21 08:35:25;;;;;;;11.25;4.75;;;11.30;99.90;;;;;;4129231;28;21277;-75
2023/03/21 08:37:27;;;;;;;10.52;4.25;;;11.30;99.90;;;;;;4127352;28;20046;-76
2023/03/21 08:39:27;;;;;;;14.07;5.00;;;11.30;99.90;;;;;;4129637;28;20033;-75
2023/03/21 08:41:28;;;;;;;9.95;3.95;;;11.30;99.90;;;;;;4129396;28;20042;-76
2023/03/21 08:43:29;;;;;;;11.30;4.32;;;11.30;99.90;;;;;;4129590;28;20033;-76
2023/03/21 08:45:29;;;;;;;12.73;4.07;;;11.30;99.90;;;;;;4129365;28;20150;-76
2023/03/21 08:47:31;;;;;;;7.07;3.55;;;11.30;99.90;;;;;;4129839;28;20050;-76
2023/03/21 08:49:31;;;;;;;11.82;4.43;;;11.30;99.90;;;;;;4129402;28;20426;-76
2023/03/21 08:51:32;;;;;;;8.85;3.17;;;11.30;99.90;;;;;;4130652;28;20033;-76
2023/03/21 08:53:33;;;;;;;7.00;3.55;;;11.30;99.90;;;;;;4131448;28;20048;-77
2023/03/21 08:55:34;;;;;;;7.40;2.88;;;11.30;99.90;;;;;;4129148;28;20502;-77
2023/03/21 08:57:34;;;;;;;14.73;3.53;;;11.30;99.90;;;;;;4133341;28;20482;-78
2023/03/21 08:59:36;;;;;;;9.27;3.17;;;11.30;99.90;;;;;;4132460;28;20037;-78
2023/03/21 09:01:36;;;;;;;6.72;3.08;;;11.30;99.90;;;;;;4131759;28;20390;-77
2023/03/21 09:03:37;;;;;;;6.45;3.30;;;11.30;99.90;;;;;;4133911;28;20030;-78
2023/03/21 09:05:38;;;;;;;9.43;3.55;;;11.30;99.90;;;;;;4135311;28;20497;-76
2023/03/21 09:07:40;;;;;;;7.53;2.80;;;11.30;99.90;;;;;;4129604;28;20486;-77
2023/03/21 09:09:41;;;;;;;8.15;3.42;;;11.30;99.90;;;;;;4130884;28;20482;-77
2023/03/21 09:11:41;;;;;;;6.82;2.85;;;11.30;99.90;;;;;;4127740;28;20033;-77
2023/03/21 09:13:42;;;;;;;8.20;3.17;;;11.40;99.90;;;;;;4128140;28;20030;-76
2023/03/21 09:15:44;;;;;;;4.80;2.65;;;11.40;99.90;;;;;;4129415;28;20545;-77
2023/03/21 09:17:47;;;;;;;10.30;4.07;;;11.40;99.90;;;;;;4131842;28;20026;-77
2023/03/21 09:19:49;;;;;;;8.85;3.30;;;11.30;99.90;;;;;;4129452;28;20477;-77
2023/03/21 09:21:52;;;;;;;7.40;2.97;;;11.40;99.90;;;;;;4131087;28;20510;-77
2023/03/21 09:23:57;;;;;;;8.98;2.92;;;11.40;99.90;;;;;;4137579;28;20109;-76
2023/03/21 09:25:57;;;;;;;8.75;3.55;;;11.40;99.90;;;;;;4132463;28;20053;-76
2023/03/21 09:27:59;;;;;;;7.80;3.22;;;11.40;99.90;;;;;;4133965;28;20038;-77
2023/03/21 09:30:00;;;;;;;9.25;3.40;;;11.50;99.90;;;;;;4131301;28;20042;-76
2023/03/21 09:32:01;;;;;;;6.88;2.83;;;11.50;99.90;;;;;;4129038;28;20454;-76
2023/03/21 09:34:02;;;;;;;7.07;3.28;;;11.50;99.90;;;;;;4129138;28;20064;-76
2023/03/21 09:36:05;;;;;;;9.27;3.05;;;11.50;99.90;;;;;;4125351;28;20089;-76
2023/03/21 09:38:06;;;;;;;6.53;2.90;;;11.60;99.90;;;;;;4128473;28;20058;-76
2023/03/21 09:40:15;;;;;;;8.02;2.92;;;11.50;99.90;;;;;;4128169;28;20045;-75
2023/03/21 09:42:42;;;;;;;9.48;3.45;;;11.50;99.90;;;;;;4128098;28;20018;-76
2023/03/21 09:45:04;;;;;;;9.52;3.10;;;11.50;99.90;;;;;;4128396;28;20120;-77
2023/03/21 09:47:32;;;;;;;8.07;2.92;;;11.60;99.90;;;;;;4124801;28;20109;-76
2023/03/21 09:49:48;;;;;;;9.63;3.55;;;11.60;99.90;;;;;;4127782;28;20030;-76
2023/03/21 09:51:53;;;;;;;7.82;3.25;;;11.60;99.90;;;;;;4130339;28;20525;-77
2023/03/21 09:53:56;;;;;;;7.47;3.85;;;11.70;99.90;;;;;;4129778;28;20077;-75
2023/03/21 09:55:58;;;;;;;6.40;3.35;;;11.60;99.90;;;;;;4127644;28;20034;-76
2023/03/21 09:58:25;;;;;;;10.82;3.70;;;11.60;99.90;;;;;;4137472;28;20473;-76
2023/03/21 10:00:31;;;;;;;9.98;3.85;;;11.60;99.90;;;;;;4127120;28;20081;-76
2023/03/21 10:03:00;;;;;;;7.60;3.28;;;11.60;99.90;;;;;;4137004;28;20042;-76
2023/03/21 10:05:09;;;;;;;8.75;3.47;;;11.60;99.90;;;;;;4128939;28;20496;-78
2023/03/21 10:07:16;;;;;;;11.50;3.60;;;11.60;99.90;;;;;;4130922;28;20593;-78
2023/03/21 10:09:21;;;;;;;12.90;4.40;;;11.60;99.90;;;;;;4129842;28;20030;-77
2023/03/21 10:11:30;;;;;;;8.80;3.67;;;11.70;99.90;;;;;;4127721;28;20070;-77
2023/03/21 10:13:40;;;;;;;11.88;4.35;;;11.60;99.90;;;;;;4144246;28;20036;-78
2023/03/21 10:15:40;;;;;;;14.93;5.25;;;11.70;99.90;;;;;;4126318;28;20022;-78
2023/03/21 10:17:49;;;;;;;9.25;4.00;;;11.60;99.90;;;;;;4127971;28;20054;-79
2023/03/21 10:20:00;;;;;;;12.27;4.47;;;11.70;99.90;;;;;;4129265;28;20030;-76
2023/03/21 10:22:00;;;;;;;13.48;4.50;;;11.70;99.90;;;;;;4129780;28;20030;-77
2023/03/21 10:24:01;;;;;;;14.48;5.28;;;11.70;99.90;;;;;;4129427;28;20125;-78
2023/03/21 10:26:06;;;;;;;10.45;4.68;;;11.70;99.90;;;;;;4135244;28;20026;-78
2023/03/21 10:28:13;;;;;;;11.35;5.80;;;11.70;99.90;;;;;;4131086;28;20392;-78
2023/03/21 10:30:42;;;;;;;14.77;5.55;;;11.60;99.90;;;;;;4127203;28;20121;-78
2023/03/21 10:32:43;;;;;;;15.35;5.82;;;11.60;99.90;;;;;;4131118;28;20037;-78
2023/03/21 10:34:56;;;;;;;11.85;5.25;;;11.60;99.90;;;;;;4129003;28;20030;-78
2023/03/21 10:36:58;;;;;;;14.10;5.50;;;11.60;99.90;;;;;;4130559;28;20034;-78
2023/03/21 10:39:05;;;;;;;10.17;4.77;;;11.60;99.90;;;;;;4131170;28;20030;-78